Time;durP1;ratioP1;P1;durP2;ratioP2;P2;SDS_P1;SDS_P2;PMS_P1;PMS_P2;Temp;Humidity;BMP_temperature;BMP_pressure;BME280_temperature;BME280_humidity;BME280_pressure;Samples;Min_cycle;Max_cycle;Signal;HPM_P1;HPM_P2
2023/11/03 00:02:08;;;;;;;;;;;8.80;99.90;;;;;;8354780;28;20163;-69
2023/11/03 00:06:10;;;;;;;;;;;8.80;99.90;;;;;;8355380;28;19986;-69
2023/11/03 00:10:14;;;;;;;;;;;8.70;99.90;;;;;;8346464;28;19932;-69
2023/11/03 00:14:16;;;;;;;;;;;8.70;99.90;;;;;;8352379;28;19936;-69
2023/11/03 00:18:19;;;;;;;;;;;8.70;99.90;;;;;;8355745;28;20387;-69
2023/11/03 00:22:24;;;;;;;;;;;8.70;99.90;;;;;;8356224;28;20395;-69
2023/11/03 00:26:26;;;;;;;;;;;8.70;99.90;;;;;;8349572;28;19978;-69
2023/11/03 00:30:28;;;;;;;;;;;8.70;99.90;;;;;;8353960;28;19925;-69
2023/11/03 00:34:30;;;;;;;;;;;8.70;99.90;;;;;;8354670;28;19932;-69
2023/11/03 00:38:32;;;;;;;;;;;8.60;99.90;;;;;;8355025;28;19932;-69
2023/11/03 00:42:33;;;;;;;;;;;8.60;99.90;;;;;;8355075;28;19925;-69
2023/11/03 00:46:35;;;;;;;;;;;8.60;99.90;;;;;;8352006;28;19925;-69
2023/11/03 00:50:38;;;;;;;;;;;8.60;99.90;;;;;;8355986;28;19925;-69
2023/11/03 00:54:39;;;;;;;;;;;8.60;99.90;;;;;;8357609;28;19932;-69
2023/11/03 00:58:41;;;;;;;;;;;8.60;99.90;;;;;;8351284;28;19947;-69
2023/11/03 01:02:43;;;;;;;;;;;8.60;99.90;;;;;;8355182;28;20238;-69
2023/11/03 01:06:46;;;;;;;;;;;8.60;99.90;;;;;;8351101;28;20020;-69
2023/11/03 01:10:47;;;;;;;;;;;8.60;99.90;;;;;;8348036;28;19925;-69
2023/11/03 01:14:51;;;;;;;;;;;8.60;99.90;;;;;;8355782;28;20368;-69
2023/11/03 01:18:53;;;;;;;;;;;8.60;99.90;;;;;;8355679;28;19928;-69
2023/11/03 01:22:55;;;;;;;;;;;8.60;99.90;;;;;;8361031;28;19968;-69
2023/11/03 01:26:59;;;;;;;;;;;8.70;99.90;;;;;;8359542;28;19925;-69
2023/11/03 01:31:00;;;;;;;;;;;8.70;99.90;;;;;;8358792;28;19931;-69
2023/11/03 01:35:02;;;;;;;;;;;8.60;99.90;;;;;;8360009;28;20243;-69
2023/11/03 01:39:05;;;;;;;;;;;8.60;99.90;;;;;;8358142;28;20234;-69
2023/11/03 01:43:08;;;;;;;;;;;8.60;99.90;;;;;;8359600;28;20322;-69
2023/11/03 01:47:10;;;;;;;;;;;8.70;99.90;;;;;;8361097;28;19964;-69
2023/11/03 01:51:11;;;;;;;;;;;8.70;99.90;;;;;;8358685;28;19925;-69
2023/11/03 01:55:13;;;;;;;;;;;8.70;99.90;;;;;;8358008;28;20058;-69
2023/11/03 01:59:16;;;;;;;;;;;8.80;99.90;;;;;;8340913;28;20291;-69
2023/11/03 02:03:18;;;;;;;;;;;8.80;99.90;;;;;;8359023;28;19925;-69
2023/11/03 02:07:20;;;;;;;;;;;8.80;99.90;;;;;;8359522;28;19932;-69
2023/11/03 02:11:26;;;;;;;;;;;8.80;99.90;;;;;;8331035;28;19932;-69
2023/11/03 02:15:28;;;;;;;;;;;8.80;99.90;;;;;;8357005;28;20308;-69
2023/11/03 02:19:30;;;;;;;;;;;8.90;99.90;;;;;;8356092;28;19960;-69
2023/11/03 02:23:32;;;;;;;;;;;8.90;99.90;;;;;;8357755;28;20372;-69
2023/11/03 02:27:34;;;;;;;;;;;8.90;99.90;;;;;;8356924;28;19979;-69
2023/11/03 02:31:36;;;;;;;;;;;8.90;99.90;;;;;;8359535;28;20295;-69
2023/11/03 02:35:38;;;;;;;;;;;9.00;99.90;;;;;;8357220;28;19970;-69
2023/11/03 02:39:40;;;;;;;;;;;9.00;99.90;;;;;;8359393;28;19979;-68
2023/11/03 02:43:42;;;;;;;;;;;9.00;99.90;;;;;;8357900;28;19967;-69
2023/11/03 02:47:43;;;;;;;;;;;9.00;99.90;;;;;;8354389;28;20369;-69
2023/11/03 02:51:45;;;;;;;;;;;9.00;99.90;;;;;;8358075;28;19932;-69
2023/11/03 02:55:46;;;;;;;;;;;9.00;99.90;;;;;;8357801;28;19940;-69
2023/11/03 02:59:48;;;;;;;;;;;9.00;99.90;;;;;;8340647;28;19924;-69
2023/11/03 03:03:50;;;;;;;;;;;9.00;99.90;;;;;;8352832;28;19978;-69
2023/11/03 03:07:52;;;;;;;;;;;9.00;99.90;;;;;;8344547;28;19931;-69
2023/11/03 03:11:53;;;;;;;;;;;9.00;99.90;;;;;;8344033;28;19929;-69
2023/11/03 03:15:55;;;;;;;;;;;9.00;99.90;;;;;;8357485;28;20350;-69
2023/11/03 03:19:56;;;;;;;;;;;9.00;99.90;;;;;;8358817;28;19928;-69
2023/11/03 03:23:58;;;;;;;;;;;9.10;99.90;;;;;;8354539;28;19952;-68
2023/11/03 03:28:00;;;;;;;;;;;9.10;99.90;;;;;;8357623;28;19968;-69
2023/11/03 03:32:01;;;;;;;;;;;9.10;99.90;;;;;;8352633;28;19955;-69
2023/11/03 03:36:03;;;;;;;;;;;9.10;99.90;;;;;;8342073;28;20296;-68
2023/11/03 03:40:06;;;;;;;;;;;9.10;99.90;;;;;;8356208;28;19936;-69
2023/11/03 03:44:07;;;;;;;;;;;9.10;99.90;;;;;;8348162;28;19929;-68
2023/11/03 03:48:09;;;;;;;;;;;9.00;99.90;;;;;;8355043;28;19968;-69
2023/11/03 03:52:11;;;;;;;;;;;8.90;99.90;;;;;;8349358;28;22654;-69
2023/11/03 03:56:12;;;;;;;;;;;8.90;99.90;;;;;;8354867;28;19925;-69
2023/11/03 04:00:15;;;;;;;;;;;8.80;99.90;;;;;;8355780;28;19947;-69
2023/11/03 04:04:17;;;;;;;;;;;8.70;99.90;;;;;;8338813;28;19925;-69
2023/11/03 04:08:19;;;;;;;;;;;8.70;99.90;;;;;;8336641;28;19929;-69
2023/11/03 04:17:24;;;;;;;;;;;8.50;99.90;;;;;;8352012;28;19919;-69
2023/11/03 04:21:25;;;;;;;;;;;8.50;99.90;;;;;;8352686;28;19929;-69
2023/11/03 04:25:27;;;;;;;;;;;8.50;99.90;;;;;;8362038;28;19929;-70
2023/11/03 04:29:29;;;;;;;;;;;8.50;99.90;;;;;;8353616;28;19978;-69
2023/11/03 04:33:30;;;;;;;;;;;8.50;99.90;;;;;;8351396;28;19932;-69
2023/11/03 04:37:32;;;;;;;;;;;8.50;99.90;;;;;;8333133;28;19931;-69
2023/11/03 04:41:34;;;;;;;;;;;8.50;99.90;;;;;;8353821;28;20299;-69
2023/11/03 04:45:35;;;;;;;;;;;8.50;99.90;;;;;;8351597;28;19931;-69
2023/11/03 04:49:37;;;;;;;;;;;8.50;99.90;;;;;;8358968;28;19948;-69
2023/11/03 04:53:39;;;;;;;;;;;8.50;99.90;;;;;;8361298;28;20380;-69
2023/11/03 04:57:41;;;;;;;;;;;8.60;99.90;;;;;;8360519;28;19929;-69
2023/11/03 05:01:44;;;;;;;;;;;8.60;99.90;;;;;;8339594;28;20015;-69
2023/11/03 05:05:46;;;;;;;;;;;8.60;99.90;;;;;;8358735;28;19936;-69
2023/11/03 05:09:48;;;;;;;;;;;8.60;99.90;;;;;;8350202;28;19933;-70
2023/11/03 05:13:49;;;;;;;;;;;8.70;99.90;;;;;;8360376;28;20286;-69
2023/11/03 05:17:52;;;;;;;;;;;8.70;99.90;;;;;;8350090;28;20384;-69
2023/11/03 05:21:54;;;;;;;;;;;8.70;99.90;;;;;;8351794;28;20416;-69
2023/11/03 05:25:56;;;;;;;;;;;8.70;99.90;;;;;;8362363;28;19925;-70
2023/11/03 05:29:58;;;;;;;;;;;8.70;99.90;;;;;;8359283;28;19925;-70
2023/11/03 05:34:01;;;;;;;;;;;8.70;99.90;;;;;;8360174;28;19947;-70
2023/11/03 05:38:03;;;;;;;;;;;8.60;99.90;;;;;;8358653;28;19925;-70
2023/11/03 05:42:05;;;;;;;;;;;8.70;99.90;;;;;;8358822;28;20281;-70
2023/11/03 05:46:07;;;;;;;;;;;8.60;99.90;;;;;;8358567;28;19925;-70
2023/11/03 05:50:11;;;;;;;;;;;8.60;99.90;;;;;;8356232;28;19929;-69
2023/11/03 05:54:13;;;;;;;;;;;8.60;99.90;;;;;;8356960;28;19959;-70
2023/11/03 05:58:14;;;;;;;;;;;8.60;99.90;;;;;;8343978;28;19978;-69
2023/11/03 06:02:16;;;;;;;;;;;8.60;99.90;;;;;;8357080;28;19943;-69
2023/11/03 06:06:18;;;;;;;;;;;8.60;99.90;;;;;;8357619;28;19924;-70
2023/11/03 06:10:20;;;;;;;;;;;8.70;99.90;;;;;;8348955;28;19944;-70
2023/11/03 06:14:22;;;;;;;;;;;8.80;99.90;;;;;;8354141;28;19991;-70
2023/11/03 06:18:23;;;;;;;;;;;8.90;99.90;;;;;;8350076;28;19933;-69
2023/11/03 06:22:25;;;;;;;;;;;8.90;99.90;;;;;;8352248;28;20430;-70
2023/11/03 06:26:27;;;;;;;;;;;9.00;99.90;;;;;;8354152;28;19940;-70
2023/11/03 06:30:28;;;;;;;;;;;9.00;99.90;;;;;;8365613;28;19928;-70
2023/11/03 06:34:30;;;;;;;;;;;9.00;99.90;;;;;;8354726;28;20455;-70
2023/11/03 06:38:32;;;;;;;;;;;9.00;99.90;;;;;;8352495;28;20018;-70
2023/11/03 06:42:33;;;;;;;;;;;9.00;99.90;;;;;;8359191;28;20296;-70
2023/11/03 06:46:35;;;;;;;;;;;9.00;99.90;;;;;;8355299;28;19932;-69
2023/11/03 06:50:37;;;;;;;;;;;9.00;99.90;;;;;;8358415;28;20265;-69
2023/11/03 06:54:42;;;;;;;;;;;9.00;99.90;;;;;;8356072;28;19933;-69
2023/11/03 06:58:44;;;;;;;;;;;9.00;99.90;;;;;;8356945;28;20386;-69
2023/11/03 07:02:46;;;;;;;;;;;9.00;99.90;;;;;;8354156;28;19961;-69
2023/11/03 07:06:48;;;;;;;;;;;9.00;99.90;;;;;;8342457;28;20423;-69
2023/11/03 07:10:50;;;;;;;;;;;9.00;99.90;;;;;;8347883;28;19987;-70
2023/11/03 07:14:52;;;;;;;;;;;9.00;99.90;;;;;;8357636;28;20280;-70
2023/11/03 07:18:54;;;;;;;;;;;9.00;99.90;;;;;;8353609;28;19924;-70
2023/11/03 07:22:56;;;;;;;;;;;9.00;99.90;;;;;;8356551;28;19947;-69
2023/11/03 07:26:59;;;;;;;;;;;9.00;99.90;;;;;;8340869;28;20269;-69
2023/11/03 07:31:03;;;;;;;;;;;9.00;99.90;;;;;;8341298;28;19925;-69
2023/11/03 07:35:06;;;;;;;;;;;9.00;99.90;;;;;;8358242;28;20380;-69
2023/11/03 07:39:08;;;;;;;;;;;9.10;99.90;;;;;;8358894;28;20048;-69
2023/11/03 07:43:10;;;;;;;;;;;9.10;99.90;;;;;;8334732;28;19925;-69
2023/11/03 07:47:12;;;;;;;;;;;9.20;99.90;;;;;;8358624;28;20244;-69
2023/11/03 07:51:14;;;;;;;;;;;9.20;99.90;;;;;;8355424;28;19924;-69
2023/11/03 07:55:15;;;;;;;;;;;9.20;99.90;;;;;;8358487;28;20372;-69
2023/11/03 07:59:17;;;;;;;;;;;9.30;99.90;;;;;;8358521;28;19928;-69
2023/11/03 08:03:19;;;;;;;;;;;9.30;99.90;;;;;;8354281;28;19925;-69
2023/11/03 08:07:21;;;;;;;;;;;9.40;99.90;;;;;;8357181;28;19925;-69
2023/11/03 08:11:22;;;;;;;;;;;9.40;99.90;;;;;;8342113;28;19925;-69
2023/11/03 08:15:24;;;;;;;;;;;9.40;99.90;;;;;;8348979;28;19932;-69
2023/11/03 08:19:26;;;;;;;;;;;9.40;99.90;;;;;;8358467;28;19936;-69
2023/11/03 08:23:28;;;;;;;;;;;9.50;99.90;;;;;;8353586;28;19936;-69
2023/11/03 08:27:29;;;;;;;;;;;9.50;99.90;;;;;;8357992;28;20419;-69
2023/11/03 08:31:31;;;;;;;;;;;9.50;99.90;;;;;;8354686;28;19940;-69
2023/11/03 08:35:34;;;;;;;;;;;9.40;99.90;;;;;;8357392;28;19948;-69
2023/11/03 08:39:35;;;;;;;;;;;9.50;99.90;;;;;;8357852;28;19932;-69
2023/11/03 08:43:38;;;;;;;;;;;9.50;99.90;;;;;;8350889;28;19947;-69
2023/11/03 08:47:43;;;;;;;;;;;9.50;99.90;;;;;;8356431;28;19929;-69
2023/11/03 08:51:44;;;;;;;;;;;9.50;99.90;;;;;;8354683;28;19931;-69
2023/11/03 08:55:46;;;;;;;;;;;9.50;99.90;;;;;;8356664;28;19940;-69
2023/11/03 08:59:48;;;;;;;;;;;9.60;99.90;;;;;;8357632;28;19929;-69
2023/11/03 09:03:50;;;;;;;;;;;9.60;99.90;;;;;;8353078;28;20265;-69
2023/11/03 09:07:52;;;;;;;;;;;9.70;99.90;;;;;;8356124;28;20273;-69
2023/11/03 09:11:54;;;;;;;;;;;9.70;99.90;;;;;;8342051;28;19925;-69
2023/11/03 09:15:57;;;;;;;;;;;9.70;99.90;;;;;;8355746;28;20378;-69
2023/11/03 09:19:59;;;;;;;;;;;9.80;99.90;;;;;;8356951;28;19956;-69
2023/11/03 09:24:01;;;;;;;;;;;9.80;99.90;;;;;;8352851;28;20391;-69
2023/11/03 09:28:03;;;;;;;;;;;9.80;99.90;;;;;;8357139;28;19929;-69
2023/11/03 09:32:06;;;;;;;;;;;9.80;99.90;;;;;;8352462;28;21000;-69
2023/11/03 09:36:08;;;;;;;;;;;9.90;99.90;;;;;;8342195;28;19928;-69
2023/11/03 09:40:10;;;;;;;;;;;10.00;99.90;;;;;;8361732;28;19932;-69
2023/11/03 09:44:12;;;;;;;;;;;10.10;99.90;;;;;;8360604;28;19929;-69
2023/11/03 09:48:17;;;;;;;;;;;10.10;99.90;;;;;;8339635;28;20016;-69
2023/11/03 09:52:23;;;;;;;;;;;10.20;99.90;;;;;;8354512;28;19928;-69
2023/11/03 09:56:27;;;;;;;;;;;10.30;99.90;;;;;;8362898;28;19925;-69
2023/11/03 10:00:28;;;;;;;;;;;10.40;99.90;;;;;;8360664;28;19925;-69
2023/11/03 10:04:30;;;;;;;;;;;10.60;99.90;;;;;;8358756;28;19932;-69
2023/11/03 10:08:33;;;;;;;;;;;10.70;99.90;;;;;;8357290;28;19925;-69
2023/11/03 10:12:34;;;;;;;;;;;11.00;99.90;;;;;;8346122;28;19932;-69
2023/11/03 10:16:36;;;;;;;;;;;11.20;99.90;;;;;;8360822;28;19986;-69
2023/11/03 10:20:38;;;;;;;;;;;11.20;99.90;;;;;;8340047;28;19925;-69
2023/11/03 10:24:39;;;;;;;;;;;11.30;99.90;;;;;;8321070;28;20206;-69
2023/11/03 10:28:41;;;;;;;;;;;11.40;99.90;;;;;;8324145;28;19963;-69
2023/11/03 10:32:43;;;;;;;;;;;11.60;99.90;;;;;;8321414;28;19932;-69
2023/11/03 10:36:48;;;;;;;;;;;11.60;99.90;;;;;;8305570;28;19937;-69
2023/11/03 10:40:54;;;;;;;;;;;11.50;99.90;;;;;;8288910;28;19933;-69
2023/11/03 10:44:56;;;;;;;;;;;11.30;99.90;;;;;;8290151;28;20281;-69
2023/11/03 10:49:03;;;;;;;;;;;11.30;99.90;;;;;;8288281;28;19938;-69
2023/11/03 10:53:27;;;;;;;;;;;11.20;99.90;;;;;;8291093;28;20016;-69
2023/11/03 10:57:31;;;;;;;;;;;11.20;99.90;;;;;;8294388;28;20269;-69
2023/11/03 11:01:40;;;;;;;;;;;11.50;99.90;;;;;;8303544;28;19926;-69
2023/11/03 11:05:51;;;;;;;;;;;11.50;99.90;;;;;;8289962;28;20017;-69
2023/11/03 11:09:55;;;;;;;;;;;11.60;99.90;;;;;;8304293;28;19937;-69
2023/11/03 11:14:14;;;;;;;;;;;11.60;99.90;;;;;;8286955;28;20009;-69
2023/11/03 11:18:18;;;;;;;;;;;11.80;99.90;;;;;;8288716;28;20354;-69
2023/11/03 11:22:23;;;;;;;;;;;11.70;99.90;;;;;;8289102;28;19925;-69
2023/11/03 11:26:25;;;;;;;;;;;12.00;99.90;;;;;;8290481;28;20016;-69
2023/11/03 11:30:35;;;;;;;;;;;12.20;99.90;;;;;;8289123;28;19953;-69
2023/11/03 11:34:40;;;;;;;;;;;12.20;99.90;;;;;;8322919;28;19932;-69
2023/11/03 11:38:42;;;;;;;;;;;12.30;99.90;;;;;;8319707;28;19979;-69
2023/11/03 11:42:44;;;;;;;;;;;12.60;99.90;;;;;;8305537;28;19971;-69
2023/11/03 11:46:50;;;;;;;;;;;12.80;99.90;;;;;;8320914;28;19952;-69
2023/11/03 11:50:51;;;;;;;;;;;12.80;99.90;;;;;;8321985;28;19987;-69
2023/11/03 11:54:57;;;;;;;;;;;12.50;99.90;;;;;;8320898;28;20032;-69
2023/11/03 11:59:00;;;;;;;;;;;12.30;99.90;;;;;;8320256;28;20312;-69
2023/11/03 12:03:02;;;;;;;;;;;12.20;99.90;;;;;;8320890;28;20343;-69
2023/11/03 12:07:05;;;;;;;;;;;12.20;99.90;;;;;;8317891;28;20447;-69
2023/11/03 12:11:06;;;;;;;;;;;12.10;99.90;;;;;;8320805;28;19929;-69
2023/11/03 12:15:08;;;;;;;;;;;12.10;99.90;;;;;;8320658;28;20381;-69
2023/11/03 12:19:12;;;;;;;;;;;12.20;99.90;;;;;;8319755;28;19936;-69
2023/11/03 12:23:14;;;;;;;;;;;12.10;99.90;;;;;;8319234;28;20020;-69
2023/11/03 12:27:19;;;;;;;;;;;11.90;99.90;;;;;;8321104;28;19960;-69
2023/11/03 12:31:21;;;;;;;;;;;11.70;99.90;;;;;;8319434;28;19933;-69
2023/11/03 12:35:23;;;;;;;;;;;11.80;99.90;;;;;;8317667;28;20021;-69
2023/11/03 12:39:25;;;;;;;;;;;11.90;99.90;;;;;;8317810;28;19964;-69
2023/11/03 12:43:27;;;;;;;;;;;11.90;99.90;;;;;;8318961;28;20039;-69
2023/11/03 12:47:42;;;;;;;;;;;12.10;99.90;;;;;;8317887;28;20307;-69
2023/11/03 12:51:44;;;;;;;;;;;12.10;99.90;;;;;;8318185;28;20414;-69
2023/11/03 12:55:46;;;;;;;;;;;11.90;99.90;;;;;;8318829;28;19952;-69
2023/11/03 12:59:48;;;;;;;;;;;12.00;99.90;;;;;;8320004;28;20054;-69
2023/11/03 13:03:49;;;;;;;;;;;12.20;99.90;;;;;;8317648;28;19925;-69
2023/11/03 13:07:52;;;;;;;;;;;12.30;99.90;;;;;;8318984;28;20044;-69
2023/11/03 13:11:53;;;;;;;;;;;12.40;99.90;;;;;;8322248;28;19929;-69
2023/11/03 13:15:55;;;;;;;;;;;12.40;99.90;;;;;;8326351;28;19983;-69
2023/11/03 13:19:57;;;;;;;;;;;12.40;99.90;;;;;;8326734;28;19925;-69
2023/11/03 13:23:58;;;;;;;;;;;12.30;99.90;;;;;;8327618;28;19929;-69
2023/11/03 13:28:01;;;;;;;;;;;12.20;99.90;;;;;;8325290;28;19981;-69
2023/11/03 13:32:03;;;;;;;;;;;12.10;99.90;;;;;;8323443;28;20363;-69
2023/11/03 13:36:08;;;;;;;;;;;12.00;99.90;;;;;;8322925;28;20432;-69
2023/11/03 13:40:11;;;;;;;;;;;11.90;99.90;;;;;;8324342;28;19987;-69
2023/11/03 13:44:12;;;;;;;;;;;11.90;99.90;;;;;;8326963;28;19926;-69
2023/11/03 14:03:25;;;;;;;;;;;11.80;99.90;;;;;;8326829;28;19923;-69
2023/11/03 14:07:27;;;;;;;;;;;11.80;99.90;;;;;;8323312;28;20301;-69
2023/11/03 14:11:29;;;;;;;;;;;11.90;99.90;;;;;;8321512;28;20340;-69
2023/11/03 14:15:30;;;;;;;;;;;11.90;99.90;;;;;;8324820;28;19925;-69
2023/11/03 14:19:33;;;;;;;;;;;12.00;99.90;;;;;;8322912;28;20438;-69
2023/11/03 14:23:35;;;;;;;;;;;11.90;99.90;;;;;;8321091;28;19963;-69
2023/11/03 14:27:38;;;;;;;;;;;12.00;99.90;;;;;;8324191;28;20456;-69
2023/11/03 14:31:41;;;;;;;;;;;11.90;99.90;;;;;;8322050;28;19932;-69
2023/11/03 14:35:43;;;;;;;;;;;11.90;99.90;;;;;;8321498;28;20388;-69
2023/11/03 14:39:44;;;;;;;;;;;11.90;99.90;;;;;;8324423;28;20256;-69
2023/11/03 14:43:48;;;;;;;;;;;12.00;99.90;;;;;;8323120;28;20415;-69
2023/11/03 14:47:49;;;;;;;;;;;11.90;99.90;;;;;;8325403;28;19925;-69
2023/11/03 14:51:52;;;;;;;;;;;11.90;99.90;;;;;;8323210;28;19936;-69
2023/11/03 14:55:53;;;;;;;;;;;11.80;99.90;;;;;;8323385;28;19929;-69
2023/11/03 14:59:55;;;;;;;;;;;11.80;99.90;;;;;;8324444;28;19929;-69
2023/11/03 15:03:57;;;;;;;;;;;11.80;99.90;;;;;;8322691;28;19929;-69
2023/11/03 15:07:58;;;;;;;;;;;11.80;99.90;;;;;;8325912;28;19978;-69
2023/11/03 15:12:00;;;;;;;;;;;11.80;99.90;;;;;;8328180;28;19929;-69
2023/11/03 15:16:03;;;;;;;;;;;11.60;99.90;;;;;;8307479;28;19983;-69
2023/11/03 15:20:11;;;;;;;;;;;11.70;99.90;;;;;;8322453;28;19925;-69
2023/11/03 15:24:13;;;;;;;;;;;11.80;99.90;;;;;;8338141;28;19955;-69
2023/11/03 15:28:15;;;;;;;;;;;11.70;99.90;;;;;;8322199;28;20331;-69
2023/11/03 15:32:16;;;;;;;;;;;11.70;99.90;;;;;;8320787;28;19928;-69
2023/11/03 15:36:19;;;;;;;;;;;11.70;99.90;;;;;;8322181;28;19929;-69
2023/11/03 15:40:23;;;;;;;;;;;11.60;99.90;;;;;;8319816;28;19929;-69
2023/11/03 15:44:25;;;;;;;;;;;11.50;99.90;;;;;;8322095;28;20426;-69
2023/11/03 15:48:27;;;;;;;;;;;11.50;99.90;;;;;;8306883;28;19925;-69
2023/11/03 15:52:32;;;;;;;;;;;11.50;99.90;;;;;;8319560;28;19968;-69
2023/11/03 15:56:33;;;;;;;;;;;11.60;99.90;;;;;;8321763;28;19929;-69
2023/11/03 16:00:36;;;;;;;;;;;11.60;99.90;;;;;;8316903;28;19939;-69
2023/11/03 16:04:38;;;;;;;;;;;11.40;99.90;;;;;;8319256;28;21221;-69
2023/11/03 16:08:41;;;;;;;;;;;11.30;99.90;;;;;;8320955;28;19991;-69
2023/11/03 16:12:45;;;;;;;;;;;11.10;99.90;;;;;;8335579;28;19933;-69
2023/11/03 16:16:47;;;;;;;;;;;11.00;99.90;;;;;;8321794;28;19929;-69
2023/11/03 16:20:48;;;;;;;;;;;10.90;99.90;;;;;;8320060;28;19926;-69
2023/11/03 16:24:51;;;;;;;;;;;10.70;99.90;;;;;;8322209;28;19929;-69
2023/11/03 16:28:52;;;;;;;;;;;10.60;99.90;;;;;;8322162;28;19929;-69
2023/11/03 16:32:54;;;;;;;;;;;10.60;99.90;;;;;;8318287;28;19964;-69
2023/11/03 16:36:57;;;;;;;;;;;10.60;99.90;;;;;;8320658;28;19980;-69
2023/11/03 16:40:59;;;;;;;;;;;10.50;99.90;;;;;;8320841;28;19929;-69
2023/11/03 16:45:01;;;;;;;;;;;10.50;99.90;;;;;;8321277;28;19932;-69
2023/11/03 16:49:02;;;;;;;;;;;10.50;99.90;;;;;;8321468;28;19925;-69
2023/11/03 16:53:04;;;;;;;;;;;10.40;99.90;;;;;;8318627;28;20414;-69
2023/11/03 16:57:07;;;;;;;;;;;10.40;99.90;;;;;;8318238;28;20013;-69
2023/11/03 17:01:12;;;;;;;;;;;10.30;99.90;;;;;;8322978;28;20028;-69
2023/11/03 17:05:15;;;;;;;;;;;10.30;99.90;;;;;;8318302;28;19929;-69
2023/11/03 17:09:20;;;;;;;;;;;10.30;99.90;;;;;;8322248;28;20354;-69
2023/11/03 17:13:22;;;;;;;;;;;10.20;99.90;;;;;;8323403;28;19925;-69
2023/11/03 17:17:24;;;;;;;;;;;10.20;99.90;;;;;;8321609;28;19979;-69
2023/11/03 17:21:26;;;;;;;;;;;10.20;99.90;;;;;;8324053;28;19932;-69
2023/11/03 17:25:27;;;;;;;;;;;10.20;99.90;;;;;;8323743;28;19933;-69
2023/11/03 17:29:29;;;;;;;;;;;10.20;99.90;;;;;;8325898;28;20333;-69
2023/11/03 17:33:31;;;;;;;;;;;10.10;99.90;;;;;;8306480;28;19994;-69
2023/11/03 17:37:32;;;;;;;;;;;10.00;99.90;;;;;;8323074;28;19925;-69
2023/11/03 17:41:35;;;;;;;;;;;10.00;99.90;;;;;;8320128;28;19932;-69
2023/11/03 17:45:36;;;;;;;;;;;9.90;99.90;;;;;;8318229;28;19932;-69
2023/11/03 17:49:38;;;;;;;;;;;9.90;99.90;;;;;;8320580;28;20392;-69
2023/11/03 17:53:40;;;;;;;;;;;9.90;99.90;;;;;;8318208;28;20339;-69
2023/11/03 17:57:43;;;;;;;;;;;9.90;99.90;;;;;;8324539;28;19971;-69
2023/11/03 18:01:45;;;;;;;;;;;9.80;99.90;;;;;;8325478;28;20274;-69
2023/11/03 18:05:46;;;;;;;;;;;9.80;99.90;;;;;;8327140;28;20304;-69
2023/11/03 18:09:48;;;;;;;;;;;9.70;99.90;;;;;;8324358;28;19929;-69
2023/11/03 18:13:52;;;;;;;;;;;9.70;99.90;;;;;;8326868;28;20399;-69
2023/11/03 18:17:54;;;;;;;;;;;9.80;99.90;;;;;;8328560;28;19933;-69
2023/11/03 18:21:56;;;;;;;;;;;9.80;99.90;;;;;;8305723;28;19932;-69
2023/11/03 18:25:59;;;;;;;;;;;9.70;99.90;;;;;;8326206;28;19924;-69
2023/11/03 18:30:01;;;;;;;;;;;9.70;99.90;;;;;;8330579;28;19929;-69
2023/11/03 18:34:02;;;;;;;;;;;9.60;99.90;;;;;;8325470;28;19925;-69
2023/11/03 18:38:04;;;;;;;;;;;9.60;99.90;;;;;;8323446;28;19977;-69
2023/11/03 18:42:07;;;;;;;;;;;9.60;99.90;;;;;;8321193;28;19933;-69
2023/11/03 18:46:09;;;;;;;;;;;9.60;99.90;;;;;;8327662;28;19936;-69
2023/11/03 18:50:10;;;;;;;;;;;9.50;99.90;;;;;;8328231;28;19925;-69
2023/11/03 18:54:15;;;;;;;;;;;9.50;99.90;;;;;;8331035;28;19925;-69
2023/11/03 18:58:37;;;;;;;;;;;9.50;99.90;;;;;;8334664;28;20016;-69
2023/11/03 19:02:42;;;;;;;;;;;9.50;99.90;;;;;;8325803;28;19937;-69
2023/11/03 19:06:48;;;;;;;;;;;9.40;99.90;;;;;;8327525;28;19929;-69
2023/11/03 19:11:10;;;;;;;;;;;9.40;99.90;;;;;;8323273;28;20171;-69
2023/11/03 19:15:19;;;;;;;;;;;9.40;99.90;;;;;;8327603;28;19972;-69
2023/11/03 19:19:20;;;;;;;;;;;9.40;99.90;;;;;;8326323;28;19932;-69
2023/11/03 19:23:24;;;;;;;;;;;9.30;99.90;;;;;;8324992;28;19944;-69
2023/11/03 19:27:28;;;;;;;;;;;9.30;99.90;;;;;;8325940;28;20430;-69
2023/11/03 19:31:30;;;;;;;;;;;9.30;99.90;;;;;;8325486;28;20385;-69
2023/11/03 19:35:36;;;;;;;;;;;9.20;99.90;;;;;;8321819;28;19925;-69
2023/11/03 19:39:38;;;;;;;;;;;9.20;99.90;;;;;;8322828;28;19924;-69
2023/11/03 19:43:40;;;;;;;;;;;9.20;99.90;;;;;;8323692;28;19972;-69
2023/11/03 19:47:43;;;;;;;;;;;9.10;99.90;;;;;;8324519;28;19931;-69
2023/11/03 19:51:45;;;;;;;;;;;9.10;99.90;;;;;;8322998;28;20012;-69
2023/11/03 19:55:49;;;;;;;;;;;9.10;99.90;;;;;;8321567;28;19963;-69
2023/11/03 19:59:51;;;;;;;;;;;9.00;99.90;;;;;;8317093;28;20346;-69
2023/11/03 20:03:53;;;;;;;;;;;9.00;99.90;;;;;;8320293;28;19936;-69
2023/11/03 20:07:55;;;;;;;;;;;9.00;99.90;;;;;;8319677;28;19925;-69
2023/11/03 20:11:56;;;;;;;;;;;9.00;99.90;;;;;;8320147;28;19936;-69
2023/11/03 20:15:58;;;;;;;;;;;8.90;99.90;;;;;;8319240;28;19925;-69
2023/11/03 20:20:00;;;;;;;;;;;8.90;99.90;;;;;;8320812;28;20284;-69
2023/11/03 20:24:01;;;;;;;;;;;8.80;99.90;;;;;;8318965;28;19936;-69
2023/11/03 20:28:03;;;;;;;;;;;8.80;99.90;;;;;;8319984;28;20281;-69
2023/11/03 20:32:06;;;;;;;;;;;8.80;99.90;;;;;;8321635;28;20646;-69
2023/11/03 20:36:08;;;;;;;;;;;8.80;99.90;;;;;;8323470;28;19979;-69
2023/11/03 20:55:19;;;;;;;;;;;8.70;99.90;;;;;;8320360;28;20446;-69
2023/11/03 20:59:21;;;;;;;;;;;8.70;99.90;;;;;;8319352;28;19925;-69
2023/11/03 21:03:23;;;;;;;;;;;8.70;99.90;;;;;;8302541;28;19992;-69
2023/11/03 21:07:24;;;;;;;;;;;8.60;99.90;;;;;;8321665;28;19968;-69
2023/11/03 21:11:26;;;;;;;;;;;8.60;99.90;;;;;;8319917;28;19936;-69
2023/11/03 21:15:28;;;;;;;;;;;8.60;99.90;;;;;;8319240;28;19933;-69
2023/11/03 21:19:33;;;;;;;;;;;8.60;99.90;;;;;;8319717;28;19926;-69
2023/11/03 21:23:35;;;;;;;;;;;8.60;99.90;;;;;;8320227;28;19936;-69
2023/11/03 21:43:01;;;;;;;;;;;8.50;99.90;;;;;;8311749;28;19963;-69
2023/11/03 21:47:03;;;;;;;;;;;8.50;99.90;;;;;;8325978;28;19932;-69
2023/11/03 21:51:05;;;;;;;;;;;8.50;99.90;;;;;;8326814;28;19929;-69
2023/11/03 21:55:07;;;;;;;;;;;8.50;99.90;;;;;;8330022;28;19925;-69
2023/11/03 21:59:09;;;;;;;;;;;8.50;99.90;;;;;;8328862;28;20427;-69
2023/11/03 22:03:11;;;;;;;;;;;8.40;99.90;;;;;;8344053;28;19925;-69
2023/11/03 22:07:12;;;;;;;;;;;8.40;99.90;;;;;;8358528;28;19928;-69
2023/11/03 22:11:14;;;;;;;;;;;8.40;99.90;;;;;;8353170;28;19951;-69
2023/11/03 22:15:16;;;;;;;;;;;8.40;99.90;;;;;;8357771;28;19938;-69
2023/11/03 22:19:17;;;;;;;;;;;8.40;99.90;;;;;;8359395;28;19954;-69
2023/11/03 22:23:20;;;;;;;;;;;8.40;99.90;;;;;;8358847;28;20399;-69
2023/11/03 22:27:22;;;;;;;;;;;8.40;99.90;;;;;;8360281;28;20368;-69
2023/11/03 22:31:24;;;;;;;;;;;8.40;99.90;;;;;;8342255;28;20312;-69
2023/11/03 22:35:25;;;;;;;;;;;8.40;99.90;;;;;;8360730;28;19925;-69
2023/11/03 22:39:27;;;;;;;;;;;8.40;99.90;;;;;;8359301;28;19933;-69
2023/11/03 22:43:29;;;;;;;;;;;8.30;99.90;;;;;;8339877;28;19929;-69
2023/11/03 22:47:30;;;;;;;;;;;8.30;99.90;;;;;;8356935;28;19933;-69
2023/11/03 22:51:32;;;;;;;;;;;8.30;99.90;;;;;;8365526;28;19929;-69
2023/11/03 22:55:34;;;;;;;;;;;8.30;99.90;;;;;;8362457;28;20416;-69
2023/11/03 22:59:37;;;;;;;;;;;8.30;99.90;;;;;;8357080;28;20288;-69
2023/11/03 23:03:41;;;;;;;;;;;8.30;99.90;;;;;;8369024;28;19925;-69
2023/11/03 23:07:42;;;;;;;;;;;8.20;99.90;;;;;;8357674;28;19925;-69
2023/11/03 23:11:45;;;;;;;;;;;8.20;99.90;;;;;;8348655;28;20323;-69
2023/11/03 23:15:46;;;;;;;;;;;8.20;99.90;;;;;;8359498;28;20355;-69
2023/11/03 23:19:48;;;;;;;;;;;8.20;99.90;;;;;;8354235;28;19929;-69
2023/11/03 23:23:52;;;;;;;;;;;8.20;99.90;;;;;;8358182;28;20277;-69
2023/11/03 23:27:53;;;;;;;;;;;8.20;99.90;;;;;;8356929;28;19925;-69
2023/11/03 23:31:55;;;;;;;;;;;8.30;99.90;;;;;;8336384;28;20435;-69
2023/11/03 23:35:57;;;;;;;;;;;8.30;99.90;;;;;;8356532;28;20384;-69
2023/11/03 23:39:58;;;;;;;;;;;8.30;99.90;;;;;;8356882;28;20390;-69
2023/11/03 23:44:00;;;;;;;;;;;8.40;99.90;;;;;;8359706;28;19928;-69
2023/11/03 23:48:02;;;;;;;;;;;8.40;99.90;;;;;;8357365;28;19924;-69
2023/11/03 23:52:04;;;;;;;;;;;8.40;99.90;;;;;;8355718;28;20299;-69
2023/11/03 23:56:06;;;;;;;;;;;8.50;99.90;;;;;;8357248;28;19947;-69
